createdAt,value
2023-02-26T00:02:59.303Z,85.76
2023-02-26T00:08:01.111Z,85.95
2023-02-26T00:13:07.220Z,86.30
2023-02-26T00:18:15.826Z,86.19
2023-02-26T00:23:18.637Z,86.15
2023-02-26T00:28:20.735Z,86.19
2023-02-26T00:33:22.800Z,86.17
2023-02-26T00:38:25.037Z,86.09
2023-02-26T00:43:27.061Z,86.11
2023-02-26T00:48:47.580Z,86.04
2023-02-26T00:54:01.721Z,86.10
2023-02-26T00:59:04.438Z,86.26
2023-02-26T01:04:06.499Z,86.29
2023-02-26T01:09:08.278Z,86.55
2023-02-26T01:14:10.600Z,86.48
2023-02-26T01:19:25.594Z,86.37
2023-02-26T01:24:30.853Z,86.11
2023-02-26T01:29:33.768Z,86.00
2023-02-26T01:34:55.121Z,86.15
2023-02-26T01:40:06.259Z,86.29
2023-02-26T01:45:16.516Z,86.11
2023-02-26T01:50:21.630Z,86.12
2023-02-26T01:55:26.794Z,86.10
2023-02-26T02:00:31.302Z,85.80
2023-02-26T02:05:56.824Z,86.20
2023-02-26T02:10:58.579Z,86.39
2023-02-26T02:16:11.763Z,86.23
2023-02-26T02:21:47.584Z,86.10
2023-02-26T02:26:52.203Z,86.14
2023-02-26T02:32:30.912Z,86.37
2023-02-26T02:37:40.054Z,87.15
2023-02-26T02:42:47.580Z,87.20
2023-02-26T02:47:57.917Z,86.87
2023-02-26T02:53:11.058Z,86.79
2023-02-26T02:58:21.270Z,85.77
2023-02-26T03:03:41.001Z,84.93
2023-02-26T03:08:44.104Z,83.67
2023-02-26T03:13:47.362Z,83.47
2023-02-26T03:19:09.235Z,83.49
2023-02-26T03:24:22.107Z,83.54
2023-02-26T03:29:24.558Z,83.26
2023-02-26T03:34:41.379Z,82.86
2023-02-26T03:39:54.305Z,82.69
2023-02-26T03:45:04.908Z,82.57
2023-02-26T03:50:15.703Z,82.39
2023-02-26T03:55:30.441Z,82.54
2023-02-26T04:00:59.032Z,82.54
2023-02-26T04:06:02.557Z,82.25
2023-02-26T04:11:10.176Z,81.48
2023-02-26T04:16:13.404Z,81.01
2023-02-26T04:21:20.290Z,81.14
2023-02-26T04:26:22.685Z,81.94
2023-02-26T04:31:24.912Z,82.40
2023-02-26T04:36:27.196Z,82.57
2023-02-26T04:41:29.153Z,82.45
2023-02-26T04:46:32.071Z,82.33
2023-02-26T04:51:33.798Z,82.47
2023-02-26T04:56:35.544Z,82.53
2023-02-26T05:06:12.869Z,82.86
2023-02-26T05:11:14.616Z,82.04
2023-02-26T05:16:16.347Z,81.72
2023-02-26T05:21:18.083Z,81.79
2023-02-26T05:26:20.049Z,82.55
2023-02-26T05:31:21.977Z,82.88
2023-02-26T05:36:24.165Z,82.54
2023-02-26T05:41:26.135Z,82.47
2023-02-26T05:46:28.422Z,83.02
2023-02-26T05:51:32.553Z,83.23
2023-02-26T05:56:34.256Z,83.03
2023-02-26T06:01:37.511Z,82.90
2023-02-26T06:06:39.255Z,82.84
2023-02-26T06:11:41.021Z,82.70
2023-02-26T06:16:42.765Z,83.01
2023-02-26T06:21:44.506Z,83.15
2023-02-26T06:26:46.198Z,83.17
2023-02-26T06:31:48.331Z,83.14
2023-02-26T06:36:50.101Z,82.97
2023-02-26T06:41:52.175Z,82.86
2023-02-26T06:46:54.152Z,82.49
2023-02-26T06:51:55.824Z,82.20
2023-02-26T06:56:57.865Z,81.85
2023-02-26T07:01:59.572Z,81.41
2023-02-26T07:07:01.282Z,80.65
2023-02-26T07:12:03.552Z,80.63
2023-02-26T07:17:05.383Z,80.77
2023-02-26T07:22:07.080Z,80.61
2023-02-26T07:27:09.603Z,81.00
2023-02-26T07:32:11.785Z,80.38
2023-02-26T07:37:13.845Z,79.91
2023-02-26T07:42:15.588Z,80.21
2023-02-26T07:47:18.007Z,80.02
2023-02-26T07:57:50.908Z,78.96
2023-02-26T08:02:52.727Z,78.44
2023-02-26T08:07:54.417Z,77.86
2023-02-26T08:12:56.089Z,78.36
2023-02-26T08:17:58.217Z,78.49
2023-02-26T08:22:59.834Z,76.81
2023-02-26T08:28:03.235Z,75.69
2023-02-26T08:33:05.057Z,75.73
2023-02-26T08:38:06.739Z,75.58
2023-02-26T08:43:08.393Z,75.05
2023-02-26T08:48:10.974Z,74.53
2023-02-26T08:53:12.825Z,73.92
2023-02-26T08:58:14.618Z,73.12
2023-02-26T09:03:16.441Z,73.28
2023-02-26T09:08:20.581Z,73.03
2023-02-26T09:13:22.200Z,65.05
2023-02-26T09:18:24.292Z,65.34
2023-02-26T09:23:26.130Z,66.78
2023-02-26T09:28:27.903Z,62.05
2023-02-26T09:33:29.705Z,61.71
2023-02-26T09:38:31.451Z,63.82
2023-02-26T09:43:52.123Z,63.50
2023-02-26T09:49:03.681Z,62.67
2023-02-26T09:54:17.036Z,63.71
2023-02-26T09:59:19.227Z,64.15
2023-02-26T10:04:43.970Z,64.65
2023-02-26T10:09:57.047Z,64.39
2023-02-26T10:15:20.934Z,65.89
2023-02-26T10:20:55.440Z,66.74
2023-02-26T10:26:19.539Z,68.72
2023-02-26T10:31:28.317Z,70.07
2023-02-26T10:36:59.391Z,70.54
2023-02-26T10:42:10.486Z,69.78
2023-02-26T10:47:34.867Z,68.78
2023-02-26T10:52:36.792Z,69.80
2023-02-26T10:57:44.143Z,70.49
2023-02-26T11:02:48.854Z,71.04
2023-02-26T11:07:55.925Z,70.80
2023-02-26T11:12:58.796Z,71.15
2023-02-26T11:18:01.852Z,70.92
2023-02-26T11:23:06.988Z,69.74
2023-02-26T11:28:30.204Z,68.61
2023-02-26T11:33:39.151Z,66.31
2023-02-26T11:38:44.367Z,66.15
2023-02-26T12:02:40.251Z,62.21
2023-02-26T12:07:42.109Z,62.84
2023-02-26T12:13:18.987Z,61.47
2023-02-26T12:18:59.422Z,61.17
2023-02-26T12:24:29.822Z,62.22
2023-02-26T12:30:13.920Z,63.24
2023-02-26T12:35:52.595Z,63.85
2023-02-26T12:41:42.642Z,64.49
2023-02-26T12:46:54.887Z,66.35
2023-02-26T12:52:30.793Z,68.15
2023-02-26T12:58:10.495Z,69.02
2023-02-26T13:03:49.232Z,71.01
2023-02-26T13:09:06.259Z,71.73
2023-02-26T13:14:23.223Z,72.17
2023-02-26T13:19:51.347Z,73.17
2023-02-26T13:25:00.267Z,71.74
2023-02-26T13:30:27.388Z,70.77
2023-02-26T13:35:37.560Z,70.14
2023-02-26T13:40:48.138Z,70.13
2023-02-26T13:46:14.461Z,70.87
2023-02-26T13:51:33.837Z,70.03
2023-02-26T13:56:35.799Z,70.14
2023-02-26T14:01:53.675Z,70.78
2023-02-26T14:07:00.101Z,70.45
2023-02-26T14:12:15.785Z,68.51
2023-02-26T14:17:18.683Z,67.44
2023-02-26T14:22:35.082Z,68.49
2023-02-26T14:27:39.783Z,69.09
2023-02-26T14:32:50.298Z,69.45
2023-02-26T14:38:07.919Z,70.13
2023-02-26T14:43:21.780Z,70.03
2023-02-26T14:48:30.201Z,69.57
2023-02-26T14:53:43.905Z,69.39
2023-02-26T14:58:54.813Z,69.24
2023-02-26T15:04:05.812Z,69.51
2023-02-26T15:09:27.131Z,70.12
2023-02-26T15:14:35.894Z,70.67
2023-02-26T15:20:09.872Z,70.07
2023-02-26T15:25:36.204Z,68.33
2023-02-26T15:30:38.375Z,68.15
2023-02-26T15:35:43.816Z,67.95
2023-02-26T15:40:46.139Z,68.32
2023-02-26T15:45:50.028Z,68.18
2023-02-26T15:50:56.110Z,68.04
2023-02-26T15:56:00.297Z,68.29
2023-02-26T16:01:03.960Z,68.32
2023-02-26T16:06:11.167Z,68.22
2023-02-26T16:11:15.598Z,69.24
2023-02-26T16:16:40.911Z,68.75
2023-02-26T16:21:43.879Z,68.97
2023-02-26T16:26:51.871Z,69.14
2023-02-26T16:31:56.133Z,69.31
2023-02-26T16:36:58.574Z,68.69
2023-02-26T16:42:37.866Z,67.86
2023-02-26T16:47:40.353Z,67.79
2023-02-26T16:52:42.111Z,67.95
2023-02-26T16:57:47.773Z,68.34
2023-02-26T17:02:50.040Z,68.92
2023-02-26T17:08:05.455Z,68.83
2023-02-26T17:13:26.560Z,68.59
2023-02-26T17:18:30.678Z,69.38
2023-02-26T17:23:37.195Z,69.52
2023-02-26T17:28:42.691Z,69.53
2023-02-26T17:33:45.232Z,70.09
2023-02-26T17:38:48.580Z,69.62
2023-02-26T17:43:50.348Z,69.74
2023-02-26T17:48:52.012Z,69.15
2023-02-26T17:53:56.100Z,69.00
2023-02-26T17:58:59.397Z,69.50
2023-02-26T18:04:01.964Z,69.29
2023-02-26T18:09:06.018Z,68.93
2023-02-26T18:14:09.489Z,68.84
2023-02-26T18:19:14.004Z,69.72
2023-02-26T18:24:16.790Z,70.03
2023-02-26T18:29:19.041Z,69.95
2023-02-26T18:34:20.712Z,70.64
2023-02-26T18:39:25.288Z,70.84
2023-02-26T18:44:28.765Z,70.96
2023-02-26T18:49:30.599Z,69.81
2023-02-26T18:54:32.310Z,68.73
2023-02-26T18:59:34.832Z,68.64
2023-02-26T19:04:36.913Z,69.56
2023-02-26T19:09:38.586Z,70.25
2023-02-26T19:14:40.257Z,70.83
2023-02-26T19:19:42.547Z,71.30
2023-02-26T19:24:44.463Z,71.51
2023-02-26T19:29:46.622Z,71.90
2023-02-26T19:34:48.280Z,72.15
2023-02-26T19:39:50.099Z,72.05
2023-02-26T19:44:52.049Z,71.71
2023-02-26T19:49:54.031Z,71.44
2023-02-26T19:54:55.762Z,71.17
2023-02-26T19:59:59.801Z,71.29
2023-02-26T20:05:01.952Z,72.45
2023-02-26T20:10:04.288Z,72.91
2023-02-26T20:15:08.256Z,72.91
2023-02-26T20:20:12.091Z,72.97
2023-02-26T20:25:15.000Z,73.17
2023-02-26T20:30:17.023Z,73.17
2023-02-26T20:35:19.278Z,73.76
2023-02-26T20:40:21.177Z,73.72
2023-02-26T20:45:22.954Z,74.05
2023-02-26T20:50:25.455Z,74.41
2023-02-26T20:55:27.348Z,74.60
2023-02-26T21:00:29.455Z,75.04
2023-02-26T21:05:31.336Z,75.02
2023-02-26T21:10:33.274Z,74.88
2023-02-26T21:15:35.695Z,74.79
2023-02-26T21:20:37.424Z,74.91
2023-02-26T21:25:40.101Z,74.61
2023-02-26T21:30:41.852Z,74.12
2023-02-26T21:35:43.571Z,73.61
2023-02-26T21:40:45.677Z,73.30
2023-02-26T21:45:50.400Z,73.76
2023-02-26T21:50:52.440Z,72.95
2023-02-26T21:55:54.645Z,72.87
2023-02-26T22:00:59.372Z,72.56
2023-02-26T22:06:01.131Z,72.51
2023-02-26T22:11:02.855Z,72.25
2023-02-26T22:16:04.809Z,71.67
2023-02-26T22:21:06.989Z,72.49
2023-02-26T22:26:08.739Z,72.48
2023-02-26T22:31:10.547Z,72.30
2023-02-26T22:36:12.296Z,71.85
2023-02-26T22:41:14.127Z,71.49
2023-02-26T22:46:17.212Z,71.49
2023-02-26T22:51:18.972Z,71.75
2023-02-26T22:56:20.626Z,71.83
2023-02-26T23:01:22.646Z,71.47
2023-02-26T23:06:24.348Z,71.82
2023-02-26T23:11:26.263Z,71.28
2023-02-26T23:16:28.078Z,71.09
2023-02-26T23:21:30.928Z,71.83
2023-02-26T23:26:33.396Z,71.42
2023-02-26T23:31:35.209Z,71.53
2023-02-26T23:36:37.298Z,71.56
2023-02-26T23:41:39.531Z,71.30
2023-02-26T23:46:41.296Z,71.21
2023-02-26T23:51:44.596Z,71.24
2023-02-26T23:56:47.398Z,71.20
